This is the latest recevied weather packets stored in our database for station/object K0BL. If no packets are shown the sender has not sent any weather packets the latest 10 day(s).
| Time | Temp. | Humidity | Pressure | Rain* | Wind** | Luminosity | Snow |
|---|---|---|---|---|---|---|---|
| 1778098638 | 13.33° C | 40% | 1014.8 hPa | 0 mm | - | 362 W/m² | - |
| 1778097731 | 13.33° C | 40% | 1014.9 hPa | 0 mm | - | 307 W/m² | - |
| 1778096522 | 12.78° C | 40% | 1015.1 hPa | 0 mm | - | 871 W/m² | - |
| 1778092924 | 13.89° C | 40% | 1014.9 hPa | 0 mm | - | 1084 W/m² | - |
| 1778092620 | 13.33° C | 40% | 1015.1 hPa | 0 mm | - | 1189 W/m² | - |
| 1778092318 | 13.33° C | 40% | 1015.1 hPa | 0 mm | - | 813 W/m² | - |
| 1778091418 | 13.33° C | 39% | 1015.2 hPa | 0 mm | - | 811 W/m² | - |
| 1778090518 | 12.78° C | 40% | 1015.4 hPa | 0 mm | - | 1073 W/m² | - |
| 1778085116 | 12.22° C | 43% | 1015.4 hPa | 0 mm | - | 659 W/m² | - |
| 1778084517 | 11.67° C | 43% | 1015.6 hPa | 0 mm | - | 300 W/m² | - |
| 1778083614 | 11.67° C | 44% | 1015.4 hPa | 0 mm | - | 786 W/m² | - |
| 1778082113 | 11.67° C | 44% | 1015.4 hPa | 0 mm | - | 659 W/m² | - |
| 1778081515 | 11.67° C | 45% | 1015.3 hPa | 0 mm | - | 434 W/m² | - |
| 1778080614 | 11.67° C | 44% | 1015.4 hPa | 0 mm | - | 632 W/m² | - |
| 1778079108 | 11.11° C | 47% | 1015.3 hPa | 0 mm | - | 561 W/m² | - |
| 1778078509 | 10.56° C | 48% | 1015.3 hPa | 0 mm | - | 538 W/m² | - |
| 1778077609 | 11.11° C | 48% | 1015.2 hPa | 0 mm | - | 540 W/m² | - |
| 1778077009 | 10° C | 51% | 1014.9 hPa | 0 mm | - | 472 W/m² | - |
| 1778076109 | 8.89° C | 53% | 1014.8 hPa | 0 mm | - | 399 W/m² | - |
| 1778074004 | 7.78° C | 58% | 1014.7 hPa | 0 mm | - | 256 W/m² | - |
| 1778073704 | 7.78° C | 61% | 1014.6 hPa | 0 mm | - | 308 W/m² | - |
| 1778073104 | 7.22° C | 61% | 1014.7 hPa | 0 mm | - | 182 W/m² | - |
| 1778072204 | 6.67° C | 63% | 1014.5 hPa | 0 mm | - | 114 W/m² | - |
| 1778071304 | 6.11° C | 65% | 1014.3 hPa | 0 mm | - | 96 W/m² | - |
| 1778069799 | 6.11° C | 65% | 1014 hPa | 0 mm | - | 56 W/m² | - |
* Rain latest hour (hover to see other rain measurements)
** Current wind speed in m/s (hover to see current wind gust speed)